Time;durP1;ratioP1;P1;durP2;ratioP2;P2;SDS_P1;SDS_P2;PMS_P1;PMS_P2;Temp;Humidity;BMP_temperature;BMP_pressure;BME280_temperature;BME280_humidity;BME280_pressure;Samples;Min_cycle;Max_cycle;Signal;HPM_P1;HPM_P2
2023/04/20 00:02:18;;;;;;;80.30;55.20;;;;;;;7.32;100.00;99090.35;109645;1250;58848;-75
2023/04/20 00:04:45;;;;;;;84.60;59.10;;;;;;;7.31;100.00;99088.06;109597;1250;65781;-76
2023/04/20 00:07:11;;;;;;;78.40;54.40;;;;;;;7.31;100.00;99088.79;109553;1251;60183;-76
2023/04/20 00:09:38;;;;;;;79.30;53.90;;;;;;;7.30;100.00;99091.69;109591;1250;59030;-76
2023/04/20 00:12:05;;;;;;;79.00;52.90;;;;;;;7.30;100.00;99091.15;109613;1250;58944;-75
2023/04/20 00:14:31;;;;;;;70.80;51.30;;;;;;;7.30;100.00;99088.52;109629;1250;58906;-75
2023/04/20 00:16:58;;;;;;;73.20;50.60;;;;;;;7.29;100.00;99083.79;109618;1250;66150;-76
2023/04/20 00:19:27;;;;;;;76.50;52.80;;;;;;;7.29;100.00;99085.38;109665;1250;58955;-76
2023/04/20 00:21:53;;;;;;;75.80;52.10;;;;;;;7.30;100.00;99084.96;109594;1250;64195;-75
2023/04/20 00:24:38;;;;;;;77.70;52.10;;;;;;;7.30;100.00;99083.55;109369;1251;59025;-76
2023/04/20 00:27:04;;;;;;;85.40;54.60;;;;;;;7.30;100.00;99083.54;109609;1250;59024;-76
2023/04/20 00:29:31;;;;;;;82.20;54.40;;;;;;;7.31;100.00;99081.55;109617;1251;59052;-76
2023/04/20 00:31:57;;;;;;;88.70;57.00;;;;;;;7.31;100.00;99075.52;109598;1250;59019;-76
2023/04/20 00:34:24;;;;;;;84.80;53.80;;;;;;;7.33;100.00;99072.80;109588;1250;59850;-76
2023/04/20 00:36:50;;;;;;;87.20;57.00;;;;;;;7.35;100.00;99079.20;109596;1250;58952;-76
2023/04/20 00:39:17;;;;;;;83.40;56.20;;;;;;;7.37;100.00;99075.94;109624;1250;59000;-76
2023/04/20 00:41:43;;;;;;;84.90;57.30;;;;;;;7.38;100.00;99074.98;109598;1250;66029;-76
2023/04/20 00:44:12;;;;;;;86.90;57.00;;;;;;;7.39;100.00;99072.45;109655;1250;58945;-75
2023/04/20 00:46:40;;;;;;;89.80;59.30;;;;;;;7.39;100.00;99073.50;109606;1250;64053;-75
2023/04/20 00:49:43;;;;;;;86.10;56.00;;;;;;;7.40;100.00;99072.04;109613;1250;58929;-76
2023/04/20 00:52:10;;;;;;;81.30;54.00;;;;;;;7.40;100.00;99070.09;109621;1250;59047;-76
2023/04/20 00:54:37;;;;;;;85.10;58.60;;;;;;;7.40;100.00;99066.73;109367;1250;66113;-76
2023/04/20 00:57:04;;;;;;;85.90;56.60;;;;;;;7.41;100.00;99068.81;109632;1250;60514;-76
2023/04/20 00:59:31;;;;;;;85.30;56.20;;;;;;;7.42;100.00;99069.46;109620;1250;64071;-76
2023/04/20 01:01:58;;;;;;;82.80;57.10;;;;;;;7.43;100.00;99067.29;109617;1250;58971;-76
2023/04/20 01:04:25;;;;;;;80.80;56.60;;;;;;;7.45;100.00;99067.91;109639;1250;58928;-76
2023/04/20 01:06:51;;;;;;;82.60;56.50;;;;;;;7.46;100.00;99065.74;109663;1250;66163;-76
2023/04/20 01:09:19;;;;;;;81.80;57.70;;;;;;;7.47;100.00;99066.89;109624;1250;59045;-76
2023/04/20 01:11:46;;;;;;;84.30;57.20;;;;;;;7.50;100.00;99063.59;109289;1255;63327;-76
2023/04/20 01:14:13;;;;;;;82.80;56.80;;;;;;;7.51;100.00;99064.44;109589;1250;59210;-75
2023/04/20 01:16:40;;;;;;;86.10;59.20;;;;;;;7.51;100.00;99063.55;109659;1250;59045;-76
2023/04/20 01:19:06;;;;;;;79.00;56.70;;;;;;;7.52;100.00;99059.93;109612;1250;66040;-76
2023/04/20 01:21:33;;;;;;;90.00;61.60;;;;;;;7.54;100.00;99061.42;109620;1250;58991;-75
2023/04/20 01:24:00;;;;;;;84.80;61.60;;;;;;;7.56;100.00;99059.91;109627;1250;64171;-75
2023/04/20 01:26:26;;;;;;;81.30;58.50;;;;;;;7.58;100.00;99057.14;109589;1250;58962;-75
2023/04/20 01:28:53;;;;;;;82.50;61.10;;;;;;;7.60;100.00;99057.18;109603;1250;59882;-75
2023/04/20 01:31:19;;;;;;;81.30;60.50;;;;;;;7.62;100.00;99060.64;109597;1250;59233;-75
2023/04/20 01:33:46;;;;;;;79.00;58.90;;;;;;;7.62;100.00;99060.11;109642;1250;58921;-75
2023/04/20 01:36:12;;;;;;;83.00;59.90;;;;;;;7.62;100.00;99056.38;109642;1250;59348;-75
2023/04/20 01:38:40;;;;;;;81.80;59.50;;;;;;;7.62;100.00;99056.02;109571;1250;58950;-75
2023/04/20 01:41:26;;;;;;;82.80;60.90;;;;;;;7.63;100.00;99053.67;109624;1250;59126;-76
2023/04/20 01:43:53;;;;;;;82.70;60.20;;;;;;;7.64;100.00;99052.39;109635;1250;66046;-74
2023/04/20 01:46:19;;;;;;;77.30;56.40;;;;;;;7.65;100.00;99053.94;109638;1250;58944;-75
2023/04/20 01:48:46;;;;;;;84.70;59.50;;;;;;;7.65;100.00;99050.02;109597;1250;59045;-76
2023/04/20 01:51:12;;;;;;;83.10;60.10;;;;;;;7.65;100.00;99051.05;109594;1250;59097;-75
2023/04/20 01:53:38;;;;;;;81.10;60.00;;;;;;;7.65;100.00;99050.56;109658;1250;58943;-75
2023/04/20 01:56:05;;;;;;;81.00;60.60;;;;;;;7.64;100.00;99052.91;109588;1250;66038;-76
2023/04/20 01:58:32;;;;;;;84.70;61.30;;;;;;;7.64;100.00;99053.08;109603;1250;58982;-75
2023/04/20 02:01:05;;;;;;;84.00;61.00;;;;;;;7.65;100.00;99055.13;109602;1250;63745;-75
2023/04/20 02:03:41;;;;;;;83.30;56.60;;;;;;;7.66;100.00;99056.85;109570;1251;59015;-76
2023/04/20 02:06:08;;;;;;;78.60;57.90;;;;;;;7.65;100.00;99065.05;109631;1250;58997;-76
2023/04/20 02:08:34;;;;;;;81.70;59.70;;;;;;;7.64;100.00;99067.40;109703;1250;66136;-75
2023/04/20 02:11:01;;;;;;;75.30;56.70;;;;;;;7.63;100.00;99066.58;109614;1250;60165;-75
2023/04/20 02:13:27;;;;;;;79.30;57.20;;;;;;;7.62;100.00;99066.29;109570;1250;62915;-75
2023/04/20 02:15:55;;;;;;;83.30;59.10;;;;;;;7.62;100.00;99066.28;109608;1250;58976;-75
2023/04/20 02:18:23;;;;;;;81.50;55.90;;;;;;;7.63;100.00;99069.24;109588;1251;59011;-75
2023/04/20 02:20:49;;;;;;;80.70;55.00;;;;;;;7.63;100.00;99067.81;109681;1250;65711;-75
2023/04/20 02:23:16;;;;;;;79.10;54.40;;;;;;;7.63;100.00;99063.39;109609;1250;59369;-78
2023/04/20 02:25:42;;;;;;;83.70;57.60;;;;;;;7.63;100.00;99060.92;109668;1250;59417;-76
2023/04/20 02:28:09;;;;;;;79.40;56.50;;;;;;;7.63;100.00;99056.31;109593;1250;59031;-76
2023/04/20 02:30:35;;;;;;;76.90;55.00;;;;;;;7.66;100.00;99053.70;109685;1250;58967;-76
2023/04/20 02:33:02;;;;;;;75.00;53.90;;;;;;;7.67;100.00;99053.96;109616;1250;58937;-75
2023/04/20 02:35:28;;;;;;;75.40;55.60;;;;;;;7.68;100.00;99053.58;109650;1250;59068;-76
2023/04/20 02:37:54;;;;;;;73.80;53.00;;;;;;;7.67;100.00;99050.27;109597;1250;59027;-76
2023/04/20 02:40:21;;;;;;;75.10;54.70;;;;;;;7.65;100.00;99049.14;109625;1250;58913;-76
2023/04/20 02:42:47;;;;;;;74.60;53.70;;;;;;;7.63;100.00;99055.42;109635;1250;58992;-76
2023/04/20 02:45:14;;;;;;;78.20;56.00;;;;;;;7.64;100.00;99054.55;109548;1250;59276;-76
2023/04/20 02:47:41;;;;;;;76.40;54.50;;;;;;;7.64;100.00;99050.99;109644;1250;60140;-76
2023/04/20 02:50:08;;;;;;;78.40;56.70;;;;;;;7.64;100.00;99053.79;109491;1250;62798;-76
2023/04/20 02:52:34;;;;;;;78.90;56.30;;;;;;;7.66;100.00;99056.19;109588;1250;59003;-76
2023/04/20 02:55:01;;;;;;;73.80;54.10;;;;;;;7.66;100.00;99054.41;109597;1250;59036;-76
2023/04/20 02:57:27;;;;;;;79.10;60.90;;;;;;;7.65;100.00;99060.30;109644;1250;65698;-76
2023/04/20 02:59:54;;;;;;;77.70;55.60;;;;;;;7.64;100.00;99062.13;109611;1250;59022;-76
2023/04/20 03:02:21;;;;;;;68.60;52.10;;;;;;;7.64;100.00;99058.95;109604;1250;64068;-76
2023/04/20 03:04:47;;;;;;;78.60;53.50;;;;;;;7.63;100.00;99056.01;109620;1250;59033;-75
2023/04/20 03:07:14;;;;;;;72.40;53.90;;;;;;;7.62;100.00;99055.66;109359;1250;59253;-75
2023/04/20 03:09:41;;;;;;;75.40;54.70;;;;;;;7.63;100.00;99057.57;109593;1250;64480;-74
2023/04/20 03:12:07;;;;;;;70.70;53.80;;;;;;;7.64;100.00;99057.35;109639;1250;58973;-75
2023/04/20 03:14:35;;;;;;;66.60;50.20;;;;;;;7.65;100.00;99061.52;109610;1250;59169;-75
2023/04/20 03:17:02;;;;;;;65.00;49.00;;;;;;;7.65;100.00;99059.58;109588;1250;59016;-74
2023/04/20 03:19:28;;;;;;;64.50;48.50;;;;;;;7.65;100.00;99061.52;109606;1250;59167;-74
2023/04/20 03:21:54;;;;;;;65.60;47.70;;;;;;;7.65;100.00;99063.48;109568;1250;59154;-74
2023/04/20 03:24:22;;;;;;;63.60;48.00;;;;;;;7.65;100.00;99063.10;109608;1250;59007;-75
2023/04/20 03:26:51;;;;;;;56.80;44.50;;;;;;;7.65;100.00;99065.21;109603;1250;62841;-76
2023/04/20 03:29:18;;;;;;;61.80;46.80;;;;;;;7.67;100.00;99067.07;109596;1250;58971;-75
2023/04/20 03:31:45;;;;;;;60.40;45.10;;;;;;;7.67;100.00;99067.06;109630;1250;59071;-75
2023/04/20 03:34:11;;;;;;;61.30;45.70;;;;;;;7.68;100.00;99067.37;109424;1250;64816;-76
2023/04/20 03:36:38;;;;;;;59.30;45.60;;;;;;;7.69;100.00;99071.76;109665;1250;59092;-75
2023/04/20 03:39:04;;;;;;;61.80;44.10;;;;;;;7.70;100.00;99072.07;109581;1250;59152;-75
2023/04/20 03:41:31;;;;;;;60.10;44.50;;;;;;;7.71;100.00;99073.77;109592;1250;59002;-76
2023/04/20 03:43:57;;;;;;;57.40;44.70;;;;;;;7.72;100.00;99074.23;109587;1251;59123;-75
2023/04/20 03:46:24;;;;;;;59.70;44.40;;;;;;;7.75;100.00;99076.95;109427;1250;59277;-76
2023/04/20 03:48:50;;;;;;;60.90;48.00;;;;;;;7.76;100.00;99077.23;109653;1250;59048;-76
2023/04/20 03:51:17;;;;;;;60.30;44.70;;;;;;;7.77;100.00;99077.17;109615;1250;64102;-75
2023/04/20 03:53:43;;;;;;;55.70;44.50;;;;;;;7.78;100.00;99080.45;109596;1250;58976;-76
2023/04/20 03:56:10;;;;;;;55.70;43.90;;;;;;;7.80;100.00;99081.61;109608;1250;59141;-76
2023/04/20 03:58:36;;;;;;;59.00;44.30;;;;;;;7.82;100.00;99079.20;109600;1252;59308;-76
2023/04/20 04:01:06;;;;;;;53.20;43.40;;;;;;;7.83;100.00;99081.61;109416;1250;59035;-76
2023/04/20 04:03:34;;;;;;;57.80;44.70;;;;;;;7.84;100.00;99085.09;109609;1250;62825;-76
2023/04/20 04:06:01;;;;;;;54.60;41.50;;;;;;;7.85;100.00;99087.87;109641;1250;59252;-76
2023/04/20 04:08:27;;;;;;;61.00;44.30;;;;;;;7.86;100.00;99092.92;109615;1250;58847;-76
2023/04/20 04:10:54;;;;;;;54.00;41.20;;;;;;;7.87;100.00;99089.52;109572;1250;59604;-76
2023/04/20 04:13:21;;;;;;;59.50;43.30;;;;;;;7.88;100.00;99088.02;109634;1250;58996;-75
2023/04/20 04:15:48;;;;;;;51.10;40.00;;;;;;;7.91;100.00;99087.34;109615;1250;62901;-76
2023/04/20 04:18:15;;;;;;;55.00;42.40;;;;;;;7.95;100.00;99088.23;109584;1250;58969;-76
2023/04/20 04:20:41;;;;;;;48.20;38.00;;;;;;;7.99;100.00;99088.70;109595;1250;59085;-76
2023/04/20 04:23:08;;;;;;;52.70;39.30;;;;;;;8.04;100.00;99084.89;109660;1250;58967;-76
2023/04/20 04:25:37;;;;;;;48.50;38.30;;;;;;;8.10;100.00;99084.70;109632;1250;58945;-76
2023/04/20 04:28:03;;;;;;;47.00;38.60;;;;;;;8.16;100.00;99083.50;109594;1250;62857;-75
2023/04/20 04:30:39;;;;;;;48.10;36.90;;;;;;;8.21;100.00;99085.86;109589;1250;58997;-76
2023/04/20 04:33:06;;;;;;;49.00;38.30;;;;;;;8.28;100.00;99086.89;109410;1250;59135;-75
2023/04/20 04:35:33;;;;;;;45.10;36.70;;;;;;;8.36;100.00;99083.80;109662;1250;66083;-75
2023/04/20 04:38:00;;;;;;;47.60;37.50;;;;;;;8.45;100.00;99084.58;109666;1250;59256;-75
2023/04/20 04:40:26;;;;;;;47.50;36.40;;;;;;;8.53;100.00;99087.98;109638;1250;64113;-75
2023/04/20 04:42:54;;;;;;;46.50;37.10;;;;;;;8.62;100.00;99094.79;109595;1250;58965;-75
2023/04/20 04:45:20;;;;;;;42.80;35.60;;;;;;;8.68;100.00;99094.44;109638;1250;58921;-76
2023/04/20 04:47:47;;;;;;;45.50;33.70;;;;;;;8.73;100.00;99099.27;109564;1250;64797;-76
2023/04/20 04:50:13;;;;;;;43.50;34.00;;;;;;;8.78;100.00;99099.84;109685;1250;58923;-76
2023/04/20 04:52:40;;;;;;;44.80;33.60;;;;;;;8.83;100.00;99102.39;109612;1250;59026;-76
2023/04/20 04:55:08;;;;;;;46.90;34.20;;;;;;;8.87;100.00;99107.85;109634;1250;59015;-76
2023/04/20 04:57:35;;;;;;;40.80;31.80;;;;;;;8.89;100.00;99108.60;109617;1250;59026;-76
2023/04/20 05:00:04;;;;;;;40.40;33.20;;;;;;;8.94;100.00;99109.73;109619;1249;64399;-77
2023/04/20 05:02:32;;;;;;;36.40;30.80;;;;;;;8.98;100.00;99111.25;109594;1250;59070;-75
2023/04/20 05:04:59;;;;;;;43.40;33.50;;;;;;;9.00;100.00;99110.98;109653;1250;62504;-75
2023/04/20 05:07:25;;;;;;;43.10;32.00;;;;;;;9.02;100.00;99115.11;109590;1250;59421;-75
2023/04/20 05:09:52;;;;;;;39.10;31.70;;;;;;;9.07;100.00;99115.04;109643;1250;59097;-77
2023/04/20 05:12:18;;;;;;;40.10;30.90;;;;;;;9.12;100.00;99115.75;109653;1250;59465;-76
2023/04/20 05:14:45;;;;;;;39.00;31.00;;;;;;;9.19;100.00;99116.06;109606;1250;59511;-76
2023/04/20 05:17:11;;;;;;;37.20;29.40;;;;;;;9.29;100.00;99120.06;109562;1250;59135;-76
2023/04/20 05:19:38;;;;;;;36.90;30.90;;;;;;;9.42;100.00;99118.05;109615;1250;59291;-76
2023/04/20 05:22:04;;;;;;;35.20;29.10;;;;;;;9.55;100.00;99117.30;109636;1250;59244;-76
2023/04/20 05:24:31;;;;;;;36.20;28.90;;;;;;;9.69;100.00;99119.41;109617;1250;64805;-76
2023/04/20 05:26:57;;;;;;;33.60;28.10;;;;;;;9.95;100.00;99119.39;109642;1250;59435;-76
2023/04/20 05:29:24;;;;;;;36.60;30.00;;;;;;;10.37;100.00;99113.26;109607;1250;59792;-76
2023/04/20 05:31:50;;;;;;;34.90;27.80;;;;;;;10.65;100.00;99116.23;109605;1250;59177;-76
2023/04/20 05:34:17;;;;;;;33.30;27.40;;;;;;;10.60;100.00;99116.56;109307;1250;59128;-76
2023/04/20 05:36:43;;;;;;;33.70;27.10;;;;;;;10.51;100.00;99121.42;109610;1250;59014;-76
2023/04/20 05:39:09;;;;;;;34.20;28.20;;;;;;;10.44;100.00;99123.30;109345;1250;59046;-76
2023/04/20 05:41:36;;;;;;;37.00;29.40;;;;;;;10.40;100.00;99119.85;109621;1250;59400;-75
2023/04/20 05:44:02;;;;;;;30.90;26.50;;;;;;;10.48;100.00;99122.52;109664;1250;58999;-76
2023/04/20 05:46:29;;;;;;;33.50;27.60;;;;;;;10.59;100.00;99121.83;109579;1251;58996;-76
2023/04/20 05:48:56;;;;;;;30.60;27.10;;;;;;;10.68;100.00;99123.69;109584;1250;59030;-76
2023/04/20 05:51:23;;;;;;;32.40;25.30;;;;;;;10.80;100.00;99127.36;109657;1250;59176;-76
2023/04/20 05:53:50;;;;;;;29.20;25.80;;;;;;;10.91;100.00;99126.45;109601;1250;64073;-76
2023/04/20 05:56:17;;;;;;;30.70;26.80;;;;;;;11.08;100.00;99126.39;109575;1251;59037;-76
2023/04/20 05:58:44;;;;;;;30.80;26.80;;;;;;;11.31;100.00;99130.70;109576;1250;59157;-76
2023/04/20 06:01:10;;;;;;;30.70;26.90;;;;;;;11.56;100.00;99133.65;109628;1250;66052;-75
2023/04/20 06:03:37;;;;;;;29.90;24.80;;;;;;;11.74;100.00;99130.03;109575;1250;60093;-75
2023/04/20 06:06:06;;;;;;;29.00;24.50;;;;;;;11.83;100.00;99135.63;109564;1250;59053;-76
2023/04/20 06:08:33;;;;;;;27.90;24.50;;;;;;;11.79;100.00;99136.11;109571;1250;59039;-76
2023/04/20 06:10:59;;;;;;;31.70;25.10;;;;;;;11.66;100.00;99135.96;109604;1250;58801;-76
2023/04/20 06:13:26;;;;;;;29.60;24.10;;;;;;;11.57;100.00;99141.20;109647;1249;59119;-75
2023/04/20 06:15:53;;;;;;;31.20;25.80;;;;;;;11.42;100.00;99149.66;109655;1250;59242;-75
2023/04/20 06:18:20;;;;;;;29.20;25.20;;;;;;;11.28;100.00;99151.73;109565;1250;62740;-75
2023/04/20 06:20:46;;;;;;;28.30;25.10;;;;;;;11.17;100.00;99152.09;109602;1250;58959;-75
2023/04/20 06:23:13;;;;;;;30.40;25.70;;;;;;;11.13;100.00;99148.09;109596;1251;58943;-75
2023/04/20 06:25:40;;;;;;;30.20;26.00;;;;;;;11.13;100.00;99149.70;109515;1251;67047;-75
2023/04/20 06:28:06;;;;;;;29.90;25.40;;;;;;;11.10;100.00;99154.18;109550;1251;60171;-75
2023/04/20 06:30:33;;;;;;;31.20;24.80;;;;;;;11.04;100.00;99154.21;109517;1251;59076;-75
2023/04/20 06:33:00;;;;;;;34.20;26.60;;;;;;;11.00;100.00;99159.95;109484;1251;59024;-75
2023/04/20 06:35:27;;;;;;;31.40;27.90;;;;;;;11.03;100.00;99154.09;109507;1251;59020;-76
2023/04/20 06:37:57;;;;;;;34.90;27.60;;;;;;;11.12;100.00;99151.37;109509;1251;65748;-76
2023/04/20 06:40:27;;;;;;;30.40;26.30;;;;;;;11.26;100.00;99154.16;109488;1251;60258;-75
2023/04/20 06:42:54;;;;;;;32.90;26.50;;;;;;;11.46;100.00;99154.98;109548;1251;62834;-76
2023/04/20 06:45:21;;;;;;;32.30;27.00;;;;;;;11.51;100.00;99154.27;109582;1251;58995;-81
2023/04/20 06:47:47;;;;;;;34.30;27.70;;;;;;;11.41;100.00;99154.16;109529;1251;59128;-74
2023/04/20 06:50:14;;;;;;;31.10;27.70;;;;;;;11.39;100.00;99155.58;109501;1251;58919;-74
2023/04/20 06:52:41;;;;;;;29.60;26.20;;;;;;;11.47;100.00;99154.71;109591;1251;59044;-74
2023/04/20 06:55:08;;;;;;;30.60;25.40;;;;;;;11.59;100.00;99153.30;109346;1251;62860;-74
2023/04/20 06:57:36;;;;;;;32.30;24.00;;;;;;;11.65;100.00;99155.77;109455;1251;59054;-74
2023/04/20 07:00:05;;;;;;;27.60;23.70;;;;;;;11.56;100.00;99160.27;109469;1251;59017;-74
2023/04/20 07:03:05;;;;;;;29.30;24.60;;;;;;;11.56;100.00;99161.93;109427;1251;65725;-74
2023/04/20 07:05:32;;;;;;;27.80;23.70;;;;;;;11.53;100.00;99164.30;108958;1259;60132;-74
2023/04/20 07:07:58;;;;;;;31.10;23.30;;;;;;;11.61;100.00;99166.02;108924;1259;59510;-74
2023/04/20 07:10:25;;;;;;;26.10;22.40;;;;;;;11.81;100.00;99164.84;108945;1259;59391;-74
2023/04/20 07:12:51;;;;;;;25.60;20.90;;;;;;;12.11;100.00;99164.51;108967;1259;58980;-74
2023/04/20 07:15:18;;;;;;;25.40;21.90;;;;;;;12.41;100.00;99162.27;108954;1259;59067;-74
2023/04/20 07:17:45;;;;;;;26.40;21.30;;;;;;;12.82;100.00;99155.70;108952;1259;60349;-74
2023/04/20 07:20:11;;;;;;;28.60;23.70;;;;;;;13.16;100.00;99155.67;108935;1259;63950;-74
2023/04/20 07:22:38;;;;;;;24.50;21.80;;;;;;;13.35;100.00;99153.71;108854;1259;59039;-74
2023/04/20 07:25:07;;;;;;;24.60;21.10;;;;;;;13.46;100.00;99155.61;108953;1259;59098;-74
2023/04/20 07:27:38;;;;;;;24.90;21.40;;;;;;;13.51;100.00;99156.82;108987;1259;66009;-74
2023/04/20 07:30:09;;;;;;;24.20;19.50;;;;;;;13.46;100.00;99158.98;108914;1259;60191;-72
2023/04/20 07:32:37;;;;;;;20.70;18.50;;;;;;;13.46;100.00;99162.17;108949;1259;63423;-73
2023/04/20 07:35:04;;;;;;;22.60;19.00;;;;;;;13.55;100.00;99161.98;108826;1261;59060;-76
2023/04/20 07:37:32;;;;;;;23.10;19.10;;;;;;;13.60;100.00;99162.20;108649;1261;59321;-73
2023/04/20 07:39:59;;;;;;;20.70;17.10;;;;;;;13.70;100.00;99163.38;108833;1261;66142;-73
2023/04/20 07:42:25;;;;;;;20.00;17.90;;;;;;;13.83;100.00;99165.98;109036;1254;59276;-74
2023/04/20 07:44:53;;;;;;;19.00;15.60;;;;;;;14.03;100.00;99165.30;109338;1254;59337;-74
2023/04/20 07:47:19;;;;;;;19.00;15.80;;;;;;;14.27;100.00;99171.96;109342;1254;59019;-74
2023/04/20 07:49:46;;;;;;;17.80;15.90;;;;;;;14.42;100.00;99173.59;109321;1254;59029;-73
2023/04/20 07:52:12;;;;;;;17.80;15.80;;;;;;;14.58;100.00;99168.40;109359;1254;59130;-73
2023/04/20 07:54:39;;;;;;;18.00;16.00;;;;;;;14.82;100.00;99167.88;109425;1254;59058;-74
2023/04/20 07:57:06;;;;;;;21.90;19.60;;;;;;;14.90;100.00;99167.27;109313;1254;59205;-74
2023/04/20 07:59:33;;;;;;;21.90;19.70;;;;;;;15.02;100.00;99162.90;109335;1254;59396;-74
2023/04/20 08:02:01;;;;;;;17.40;15.50;;;;;;;15.19;100.00;99161.16;109290;1254;59174;-74
2023/04/20 08:04:27;;;;;;;18.10;16.20;;;;;;;15.18;100.00;99163.68;109337;1254;66042;-74
2023/04/20 08:06:54;;;;;;;17.80;15.90;;;;;;;15.15;100.00;99163.56;109510;1251;59030;-74
2023/04/20 08:09:20;;;;;;;18.30;15.90;;;;;;;15.08;100.00;99163.08;109486;1251;64053;-74
2023/04/20 08:11:47;;;;;;;19.50;17.40;;;;;;;15.08;100.00;99157.56;109505;1253;58977;-74
2023/04/20 08:14:14;;;;;;;21.70;17.00;;;;;;;15.32;100.00;99157.02;109454;1251;58934;-74
2023/04/20 08:16:41;;;;;;;18.30;16.10;;;;;;;15.53;100.00;99157.34;109516;1251;65817;-74
2023/04/20 08:19:10;;;;;;;18.10;16.20;;;;;;;15.69;100.00;99155.27;109501;1251;59196;-74
2023/04/20 08:21:41;;;;;;;19.00;17.00;;;;;;;15.84;100.00;99152.09;109558;1251;64331;-74
2023/04/20 08:24:08;;;;;;;20.90;16.90;;;;;;;15.83;100.00;99158.09;109232;1254;59067;-73
2023/04/20 08:26:35;;;;;;;17.80;15.70;;;;;;;15.83;100.00;99163.25;109223;1254;59072;-73
2023/04/20 08:29:02;;;;;;;18.40;16.00;;;;;;;16.02;100.00;99158.77;109239;1255;65332;-73
2023/04/20 08:31:28;;;;;;;17.90;16.00;;;;;;;16.11;100.00;99157.64;109296;1254;60158;-74
2023/04/20 08:33:55;;;;;;;20.10;15.80;;;;;;;16.07;100.00;99161.70;109205;1254;58976;-74
2023/04/20 08:36:22;;;;;;;22.00;17.30;;;;;;;16.03;100.00;99160.07;109241;1256;59029;-74
2023/04/20 08:39:19;;;;;;;20.90;17.50;;;;;;;15.97;100.00;99157.02;109285;1254;58984;-73
2023/04/20 08:41:46;;;;;;;21.70;18.80;;;;;;;15.90;100.00;99159.95;109229;1256;65942;-73
2023/04/20 08:44:13;;;;;;;22.50;19.30;;;;;;;15.88;100.00;99157.11;109267;1255;60024;-73
2023/04/20 08:46:42;;;;;;;23.40;19.20;;;;;;;15.80;100.00;99156.91;109242;1254;59166;-73
2023/04/20 08:49:11;;;;;;;21.50;18.80;;;;;;;15.81;100.00;99158.27;109258;1254;58980;-73
2023/04/20 08:51:42;;;;;;;20.40;17.60;;;;;;;15.73;100.00;99157.09;109238;1254;59294;-73
2023/04/20 08:54:10;;;;;;;22.70;18.10;;;;;;;15.45;100.00;99155.84;109265;1254;66015;-74
2023/04/20 08:56:39;;;;;;;19.20;17.10;;;;;;;15.37;100.00;99155.64;109501;1251;59047;-73
2023/04/20 08:59:08;;;;;;;20.70;16.80;;;;;;;15.47;100.00;99154.82;109490;1251;64535;-73
2023/04/20 09:01:37;;;;;;;20.00;16.70;;;;;;;15.65;100.00;99154.91;109463;1252;59038;-73
2023/04/20 09:04:17;;;;;;;18.10;16.20;;;;;;;15.69;100.00;99155.13;109564;1251;59350;-73
2023/04/20 09:06:51;;;;;;;19.50;17.20;;;;;;;15.66;100.00;99157.20;109523;1251;66505;-73
2023/04/20 09:09:19;;;;;;;18.80;16.70;;;;;;;15.69;100.00;99157.81;109271;1251;59811;-74
2023/04/20 09:11:47;;;;;;;23.20;17.40;;;;;;;15.76;100.00;99157.09;109497;1251;62936;-73
2023/04/20 09:14:15;;;;;;;20.10;17.60;;;;;;;15.82;100.00;99159.02;109512;1251;59070;-74
2023/04/20 09:16:52;;;;;;;19.60;16.70;;;;;;;15.88;100.00;99155.99;109522;1252;58911;-73
2023/04/20 09:19:23;;;;;;;19.30;16.80;;;;;;;15.93;100.00;99159.31;109506;1251;64828;-73
2023/04/20 09:21:53;;;;;;;19.80;16.90;;;;;;;15.99;100.00;99161.33;109532;1253;59034;-73
2023/04/20 09:24:21;;;;;;;19.90;16.30;;;;;;;16.16;100.00;99161.48;109545;1252;62842;-74
2023/04/20 09:26:47;;;;;;;19.40;16.50;;;;;;;16.31;100.00;99162.50;109420;1251;154401;-73
2023/04/20 09:29:22;;;;;;;19.60;16.10;;;;;;;16.44;100.00;99158.47;109307;1251;59009;-73
2023/04/20 09:31:49;;;;;;;18.10;16.20;;;;;;;16.58;100.00;99156.48;109518;1252;64862;-73
2023/04/20 09:34:16;;;;;;;18.80;16.00;;;;;;;16.69;100.00;99156.42;109326;1251;59150;-74
2023/04/20 09:36:45;;;;;;;18.00;16.10;;;;;;;16.76;100.00;99154.36;109511;1251;63838;-73
2023/04/20 09:39:15;;;;;;;22.10;17.00;;;;;;;16.91;100.00;99151.44;109480;1255;59020;-74
2023/04/20 09:41:42;;;;;;;18.00;15.70;;;;;;;17.05;100.00;99148.32;109486;1252;59025;-74
2023/04/20 09:44:11;;;;;;;20.30;16.50;;;;;;;17.13;100.00;99144.94;109496;1251;74959;-74
2023/04/20 09:46:39;;;;;;;18.70;16.70;;;;;;;17.07;100.00;99145.59;109518;1251;59318;-74
2023/04/20 09:49:08;;;;;;;20.70;17.20;;;;;;;17.04;100.00;99143.59;109501;1251;64100;-74
2023/04/20 09:51:37;;;;;;;17.90;13.80;;;;;;;17.07;100.00;99145.50;109550;1251;58953;-74
2023/04/20 09:54:05;;;;;;;14.90;13.40;;;;;;;17.04;100.00;99143.23;109545;1251;59561;-74
2023/04/20 09:56:33;;;;;;;12.40;11.10;;;;;;;17.23;100.00;99139.17;109510;1251;66017;-74
2023/04/20 09:59:01;;;;;;;13.30;11.50;;;;;;;17.44;100.00;99130.93;109557;1251;59156;-74
2023/04/20 10:01:33;;;;;;;17.00;14.20;;;;;;;17.69;100.00;99128.61;109558;1251;62835;-74
2023/04/20 10:04:01;;;;;;;18.00;16.00;;;;;;;17.87;100.00;99134.50;109548;1251;58936;-74
2023/04/20 10:06:30;;;;;;;22.90;16.40;;;;;;;17.79;100.00;99136.98;109569;1252;58883;-74
2023/04/20 10:09:00;;;;;;;16.20;14.50;;;;;;;17.76;100.00;99135.61;109550;1253;66108;-74
2023/04/20 10:11:42;;;;;;;15.60;13.70;;;;;;;17.80;100.00;99134.08;109556;1251;59789;-74
2023/04/20 10:14:16;;;;;;;17.30;14.00;;;;;;;17.89;100.00;99133.16;109481;1251;63049;-74
2023/04/20 10:16:44;;;;;;;14.50;13.00;;;;;;;18.16;100.00;99132.05;109511;1251;58991;-74
2023/04/20 10:19:11;;;;;;;15.80;13.20;;;;;;;18.42;100.00;99130.23;109478;1253;59072;-74
2023/04/20 10:21:46;;;;;;;14.10;12.70;;;;;;;18.34;100.00;99128.10;109565;1251;66060;-74
2023/04/20 10:24:13;;;;;;;14.60;12.30;;;;;;;18.44;100.00;99118.23;109516;1251;59456;-74
2023/04/20 10:26:42;;;;;;;12.20;10.90;;;;;;;18.55;100.00;99114.41;109531;1251;64055;-74
2023/04/20 10:29:08;;;;;;;11.30;10.30;;;;;;;18.61;100.00;99113.23;109558;1251;58937;-74
2023/04/20 10:31:37;;;;;;;11.50;10.30;;;;;;;18.64;100.00;99110.49;109587;1251;58870;-74
2023/04/20 10:34:04;;;;;;;15.10;10.60;;;;;;;18.62;100.00;99110.60;109500;1251;66030;-74
2023/04/20 10:36:33;;;;;;;13.70;10.80;;;;;;;18.56;100.00;99108.02;109541;1253;59064;-74
2023/04/20 10:39:04;;;;;;;11.90;10.70;;;;;;;18.48;100.00;99108.48;109524;1251;62511;-75
2023/04/20 10:41:31;;;;;;;13.80;11.60;;;;;;;18.37;100.00;99110.20;109290;1252;59087;-74
2023/04/20 10:44:07;;;;;;;11.40;10.00;;;;;;;18.37;100.00;99107.86;109554;1251;58953;-74
2023/04/20 10:46:34;;;;;;;9.90;8.90;;;;;;;18.57;100.00;99100.86;109093;1251;66043;-74
2023/04/20 10:49:01;;;;;;;10.50;9.40;;;;;;;18.94;100.00;99099.62;109530;1251;60181;-74
2023/04/20 10:51:28;;;;;;;10.70;9.60;;;;;;;19.11;100.00;99092.28;109539;1251;63023;-74
2023/04/20 10:54:05;;;;;;;13.00;10.80;;;;;;;19.19;100.00;99096.23;109548;1252;58939;-74
2023/04/20 10:56:51;;;;;;;11.10;9.80;;;;;;;19.05;100.00;99095.29;109517;1253;59018;-74
2023/04/20 10:59:20;;;;;;;13.10;9.10;;;;;;;18.82;100.00;99097.69;109558;1251;66158;-74
2023/04/20 11:01:47;;;;;;;11.20;10.10;;;;;;;18.62;100.00;99100.02;109557;1251;60824;-74
2023/04/20 11:04:15;;;;;;;11.00;9.30;;;;;;;18.40;100.00;99098.38;109502;1251;62815;-74
2023/04/20 11:06:43;;;;;;;11.50;9.90;;;;;;;18.15;100.00;99101.19;109484;1251;58919;-75
2023/04/20 11:09:21;;;;;;;12.00;10.80;;;;;;;18.04;100.00;99099.98;109563;1251;59014;-74